Main page
METAR-TAF:

METAR-TAF

Airports :

Birsa Munda Airport

Ranchi, India

latitude: 23-18-51N, longitude: 85-19-18E, elevation: 646 m

Current weather observation

The report was made 15 minutes ago, at 18:00 UTC
Calm wind
Temperature 20°C
Humidity 78%
Pressure 1014 hPa
Visibility: 3000 m
haze

METAR: VERC 211800Z 00000KT 3000 HZ NSC 20/16 Q1014 NOSIG

Time: 23:45 (18:15 UTC)

Forecast

The report was made 1 hour and 15 minutes ago, at 17:00 UTC
Forecast valid from 21 at 18 UTC to 22 at 03 UTC
Wind 5 kt from the West
Visibility: 2500 m
Few clouds at a height of 2000 ft
mist

TAF: VERC 211700Z 2118/2203 27005KT 2500 BR FEW020

Weather observations and forecasts of more than 4000 airports (METAR and TAF reports).

The available stations are represented by yellow and red dots on the map.

Hover mouse over dot to see the name of the station.

Then click to see weather observations and forecasts.

To change the map : click on the green buttons with a black cross to zoom in, on the green button with a dash to zoom out, or on the green arrows for adjacent maps.


METAR-TAF: